Terminal Aerodrome Forecast
Issued by NWS Wilmington, OH

Current Version | Previous Version | Text Only | Print | Product List | Glossary Off
Versions: 1 2 3 4 5 6 7 8 9 10 11 12 13 14 15 16 17 18 19 20 21 22 23

106
FTUS41 KILN 190820 AAA
TAFDAY
TAF AMD
KDAY 190820Z 1908/2006 25010KT P6SM SCT012
      TEMPO 1908/1910 5SM BR OVC006
     FM191000 26006KT 2SM BR OVC006
     FM191500 27008KT P6SM SCT015
     FM191900 26008KT P6SM SCT250
     FM200000 23005KT P6SM SCT250
     FM200500 21003KT 5SM BR SCT250=

USA.gov is the U.S. government's official web portal to all federal, state and local government web resources and services.